Time;durP1;ratioP1;P1;durP2;ratioP2;P2;SDS_P1;SDS_P2;PMS_P1;PMS_P2;Temp;Humidity;BMP_temperature;BMP_pressure;BME280_temperature;BME280_humidity;BME280_pressure;Samples;Min_cycle;Max_cycle;Signal;HPM_P1;HPM_P2
2022/12/10 00:02:09;;;;;;;69.45;27.52;;;;;;;-148.88;100.00;77227.78;5016367;28;20477;-76
2022/12/10 00:04:34;;;;;;;80.38;29.77;;;;;;;-148.88;100.00;77227.78;5016349;28;20160;-75
2022/12/10 00:06:59;;;;;;;75.32;29.75;;;;;;;-148.88;100.00;77211.53;5015015;28;20029;-76
2022/12/10 00:09:25;;;;;;;71.68;24.85;;;;;;;-148.88;100.00;77213.56;5016318;28;20052;-75
2022/12/10 00:11:50;;;;;;;66.32;23.27;;;;;;;-148.88;100.00;77203.41;5016614;28;20476;-75
2022/12/10 00:14:16;;;;;;;70.60;26.08;;;;;;;-148.88;100.00;77203.41;5016216;28;20110;-76
2022/12/10 00:16:42;;;;;;;69.28;24.75;;;;;;;-148.88;100.00;77197.28;5016180;28;20026;-76
2022/12/10 00:19:08;;;;;;;71.47;26.73;;;;;;;-148.88;100.00;77191.19;5016029;28;20033;-75
2022/12/10 00:21:35;;;;;;;74.72;26.05;;;;;;;-148.88;100.00;77191.19;5016098;28;20017;-75
2022/12/10 00:24:01;;;;;;;66.95;23.10;;;;;;;-148.88;100.00;77191.19;5016140;28;20030;-75
2022/12/10 00:26:29;;;;;;;67.93;24.55;;;;;;;-148.88;100.00;77187.13;5014762;28;20102;-75
2022/12/10 00:28:58;;;;;;;63.75;23.42;;;;;;;-148.88;100.00;77187.13;5016115;28;20036;-75
2022/12/10 00:31:27;;;;;;;57.90;23.15;;;;;;;-148.88;100.00;77181.03;5016242;28;20030;-75
2022/12/10 00:33:54;;;;;;;50.97;20.75;;;;;;;-148.88;100.00;77168.84;5014553;28;20030;-76
2022/12/10 00:36:23;;;;;;;69.68;26.50;;;;;;;-148.88;100.00;77183.06;5016204;28;20107;-75
2022/12/10 00:38:49;;;;;;;69.72;26.63;;;;;;;-148.88;100.00;77215.59;5014352;28;20037;-75
2022/12/10 00:41:15;;;;;;;80.05;29.08;;;;;;;-148.88;100.00;77227.78;5014507;28;20412;-76
2022/12/10 00:43:41;;;;;;;75.00;27.30;;;;;;;-148.88;100.00;77233.88;5014258;28;20048;-75
2022/12/10 00:46:07;;;;;;;81.38;27.15;;;;;;;-148.88;100.00;77244.03;5014228;28;20065;-76
2022/12/10 00:48:33;;;;;;;101.55;32.20;;;;;;;-148.88;100.00;77252.16;5015489;28;20061;-75
2022/12/10 00:51:06;;;;;;;92.57;30.23;;;;;;;-148.88;100.00;77256.22;5015550;28;20075;-76
2022/12/10 00:53:34;;;;;;;95.93;29.50;;;;;;;-148.88;100.00;77262.31;5014120;28;20025;-76
2022/12/10 00:55:59;;;;;;;95.68;29.13;;;;;;;-148.88;100.00;77266.38;5015377;28;20112;-75
2022/12/10 00:58:30;;;;;;;85.60;28.17;;;;;;;-148.88;100.00;77262.31;5015543;28;20057;-75
2022/12/10 01:01:07;;;;;;;104.25;30.10;;;;;;;-148.88;100.00;77262.31;5015245;28;20028;-75
2022/12/10 01:03:32;;;;;;;98.88;27.90;;;;;;;-148.88;100.00;77256.22;5014701;28;20030;-76
2022/12/10 01:06:07;;;;;;;113.97;31.15;;;;;;;-148.88;100.00;77268.41;5015262;28;20037;-75
2022/12/10 01:08:33;;;;;;;87.63;28.42;;;;;;;-148.88;100.00;77264.34;5015282;28;20034;-75
2022/12/10 01:10:58;;;;;;;141.27;33.40;;;;;;;-148.88;100.00;77266.38;5015809;28;20041;-75
2022/12/10 01:13:23;;;;;;;143.65;34.40;;;;;;;-148.88;100.00;77264.34;5015166;28;20520;-76
2022/12/10 01:15:48;;;;;;;122.75;33.65;;;;;;;-148.88;100.00;77272.47;5015029;28;20030;-75
2022/12/10 01:18:14;;;;;;;110.75;30.35;;;;;;;-148.88;100.00;77260.28;5014917;28;20044;-75
2022/12/10 01:20:39;;;;;;;88.78;29.10;;;;;;;-148.88;100.00;77268.41;5015289;28;20092;-75
2022/12/10 01:23:04;;;;;;;94.78;30.85;;;;;;;-148.88;100.00;77272.47;5014871;28;20021;-76
2022/12/10 01:25:30;;;;;;;92.40;29.50;;;;;;;-148.88;100.00;77268.41;5014893;28;20048;-76
2022/12/10 01:27:55;;;;;;;86.80;29.58;;;;;;;-148.88;100.00;77278.56;5015166;28;20025;-75
2022/12/10 01:30:20;;;;;;;84.18;28.00;;;;;;;-148.88;100.00;77268.41;5014927;28;20025;-75
2022/12/10 01:32:46;;;;;;;85.28;28.63;;;;;;;-148.88;100.00;77274.50;5014799;28;20430;-76
2022/12/10 01:35:11;;;;;;;78.15;27.08;;;;;;;-148.88;100.00;77276.53;5014809;28;20026;-75
2022/12/10 01:37:36;;;;;;;82.90;31.17;;;;;;;-148.88;100.00;77268.41;5014676;28;20032;-75
2022/12/10 01:40:05;;;;;;;75.90;29.25;;;;;;;-148.88;100.00;77266.38;5014738;28;20034;-76
2022/12/10 01:42:30;;;;;;;79.43;27.83;;;;;;;-148.88;100.00;77264.34;5013413;28;20026;-75
2022/12/10 01:44:59;;;;;;;72.35;28.33;;;;;;;-148.88;100.00;77264.34;5014488;28;20037;-75
2022/12/10 01:47:25;;;;;;;68.85;27.00;;;;;;;-148.88;100.00;77244.03;5014504;28;20034;-75
2022/12/10 01:49:50;;;;;;;75.32;29.05;;;;;;;-148.88;100.00;77250.13;5014458;28;20017;-76
2022/12/10 01:52:16;;;;;;;71.03;27.15;;;;;;;-148.88;100.00;77235.91;5014716;28;20468;-76
2022/12/10 01:54:44;;;;;;;66.10;25.00;;;;;;;-148.88;100.00;77239.97;5014375;28;20025;-76
2022/12/10 01:57:14;;;;;;;68.72;25.52;;;;;;;-148.88;100.00;77250.13;5014333;28;20029;-76
2022/12/10 01:59:42;;;;;;;69.10;28.30;;;;;;;-148.88;100.00;77227.78;5014451;28;20030;-75
2022/12/10 02:02:12;;;;;;;71.05;26.75;;;;;;;-148.88;100.00;77235.91;5014189;28;20057;-76
2022/12/10 02:05:10;;;;;;;65.22;25.08;;;;;;;-148.88;100.00;77231.84;5014066;28;20467;-75
2022/12/10 02:08:23;;;;;;;59.13;24.35;;;;;;;-148.88;100.00;77223.72;5014394;28;20097;-75
2022/12/10 02:11:16;;;;;;;68.15;24.25;;;;;;;-148.88;100.00;77231.84;4991728;28;20065;-76
2022/12/10 02:13:53;;;;;;;56.22;23.45;;;;;;;-148.88;100.00;77219.66;5012726;28;20498;-76
2022/12/10 02:16:31;;;;;;;66.70;24.50;;;;;;;-148.88;100.00;77215.59;5013095;28;20025;-75
2022/12/10 02:19:07;;;;;;;61.38;25.13;;;;;;;-148.88;100.00;77215.59;5014181;28;20028;-75
2022/12/10 02:21:36;;;;;;;62.80;23.92;;;;;;;-148.88;100.00;77207.47;5014097;28;20036;-75
2022/12/10 02:24:07;;;;;;;59.67;22.92;;;;;;;-148.88;100.00;77199.31;5013688;28;20022;-76
2022/12/10 02:26:35;;;;;;;63.38;23.48;;;;;;;-148.88;100.00;77195.25;5012927;28;20056;-75
2022/12/10 02:29:24;;;;;;;54.35;23.23;;;;;;;-148.88;100.00;77191.19;5013695;28;20030;-76
2022/12/10 02:32:10;;;;;;;57.72;24.50;;;;;;;-148.88;100.00;77185.09;5012238;28;20069;-76
2022/12/10 02:34:41;;;;;;;55.88;23.05;;;;;;;-148.88;100.00;77189.16;5012167;28;20113;-76
2022/12/10 02:37:15;;;;;;;58.13;23.35;;;;;;;-148.88;100.00;77187.13;5012327;28;20026;-75
2022/12/10 02:39:45;;;;;;;59.53;24.40;;;;;;;-148.88;100.00;77183.06;5013260;28;20022;-76
2022/12/10 02:42:12;;;;;;;65.78;23.75;;;;;;;-148.88;100.00;77174.94;5013482;28;20072;-75
2022/12/10 02:44:42;;;;;;;70.07;23.83;;;;;;;-148.88;100.00;77170.88;5013253;28;20029;-76
2022/12/10 02:47:09;;;;;;;56.20;23.30;;;;;;;-148.88;100.00;77166.81;5012030;28;20088;-76
2022/12/10 02:49:36;;;;;;;58.15;24.75;;;;;;;-148.88;100.00;77162.75;5013652;28;20045;-76
2022/12/10 02:52:17;;;;;;;59.42;24.77;;;;;;;-148.88;100.00;77160.72;5011932;28;20201;-76
2022/12/10 02:54:48;;;;;;;58.80;22.90;;;;;;;-148.88;100.00;77154.63;5013162;28;20026;-75
2022/12/10 02:57:41;;;;;;;59.53;24.50;;;;;;;-148.88;100.00;77166.81;5012428;28;20028;-76
2022/12/10 03:00:15;;;;;;;61.35;22.42;;;;;;;-148.88;100.00;77162.75;5012955;28;20100;-76
2022/12/10 03:02:48;;;;;;;58.63;24.67;;;;;;;-148.88;100.00;77162.75;5013206;28;20030;-76
2022/12/10 03:05:35;;;;;;;65.43;24.58;;;;;;;-148.88;100.00;77162.75;5013472;28;20033;-76
2022/12/10 03:08:05;;;;;;;65.40;25.13;;;;;;;-148.88;100.00;77154.63;5012867;28;20022;-76
2022/12/10 03:11:08;;;;;;;60.88;24.02;;;;;;;-148.88;100.00;77152.59;5011576;28;20155;-75
2022/12/10 03:13:59;;;;;;;57.55;22.80;;;;;;;-148.88;100.00;77156.66;5000481;28;20128;-76
2022/12/10 03:16:34;;;;;;;53.30;23.08;;;;;;;-148.88;100.00;77132.28;5000477;28;20068;-76
2022/12/10 03:19:05;;;;;;;57.55;23.73;;;;;;;-148.88;100.00;77136.34;5013011;28;20477;-75
2022/12/10 03:21:35;;;;;;;56.97;23.45;;;;;;;-148.88;100.00;77130.25;5011526;28;20389;-76
2022/12/10 03:24:02;;;;;;;50.65;22.23;;;;;;;-148.88;100.00;77126.19;5012842;28;20056;-76
2022/12/10 03:26:27;;;;;;;52.53;23.83;;;;;;;-148.88;100.00;77126.19;5012758;28;20395;-76
2022/12/10 03:28:59;;;;;;;58.03;25.02;;;;;;;-148.88;100.00;77118.06;5011445;28;20454;-75
2022/12/10 03:31:24;;;;;;;53.78;22.58;;;;;;;-148.88;100.00;77116.03;5011527;28;20053;-76
2022/12/10 03:33:50;;;;;;;55.42;21.27;;;;;;;-148.88;100.00;77111.97;5012857;28;20065;-76
2022/12/10 03:36:18;;;;;;;51.35;22.65;;;;;;;-148.88;100.00;77105.84;5012963;28;20532;-76
2022/12/10 03:38:44;;;;;;;59.22;24.15;;;;;;;-148.88;100.00;77097.72;5012637;28;20091;-76
2022/12/10 03:41:10;;;;;;;55.75;21.88;;;;;;;-148.88;100.00;77097.72;5012515;28;20464;-76
2022/12/10 03:43:35;;;;;;;54.28;22.45;;;;;;;-148.88;100.00;77093.66;5012540;28;20479;-76
2022/12/10 03:46:01;;;;;;;45.78;20.42;;;;;;;-148.88;100.00;77089.59;5011233;28;20076;-76
2022/12/10 03:48:26;;;;;;;52.65;22.73;;;;;;;-148.88;100.00;77095.69;5012513;28;20032;-76
2022/12/10 03:50:51;;;;;;;58.42;25.25;;;;;;;-148.88;100.00;77089.59;5012747;28;20022;-75
2022/12/10 03:53:17;;;;;;;50.90;21.70;;;;;;;-148.88;100.00;77081.47;5011000;28;20173;-76
2022/12/10 03:55:42;;;;;;;55.15;23.00;;;;;;;-148.88;100.00;77085.53;5012814;28;20026;-76
2022/12/10 03:58:07;;;;;;;51.05;22.60;;;;;;;-148.88;100.00;77089.59;5012701;28;20026;-76
2022/12/10 04:00:33;;;;;;;48.83;21.67;;;;;;;-148.88;100.00;77095.69;5011007;28;20481;-76
2022/12/10 04:02:58;;;;;;;48.05;20.67;;;;;;;-148.88;100.00;77087.56;5012620;28;20044;-76
2022/12/10 04:05:23;;;;;;;48.03;20.50;;;;;;;-148.88;100.00;77085.53;5012608;28;20376;-76
2022/12/10 04:07:49;;;;;;;50.53;21.83;;;;;;;-148.88;100.00;77081.47;5010853;28;20033;-76
2022/12/10 04:10:14;;;;;;;53.03;23.88;;;;;;;-148.88;100.00;77089.59;5012577;28;20040;-76
2022/12/10 04:12:39;;;;;;;49.10;20.85;;;;;;;-148.88;100.00;77087.56;5012434;28;20026;-75
2022/12/10 04:17:49;;;;;;;49.38;20.65;;;;;;;-148.88;100.00;77081.47;5012425;28;20107;-76
2022/12/10 04:28:27;;;;;;;55.53;22.75;;;;;;;-148.88;100.00;77085.53;5012062;28;20041;-76
2022/12/10 04:30:52;;;;;;;46.63;21.40;;;;;;;-148.88;100.00;77081.47;5012088;28;20022;-76
2022/12/10 04:33:17;;;;;;;45.55;20.95;;;;;;;-148.88;100.00;77079.44;5011985;28;20026;-76
2022/12/10 04:35:43;;;;;;;49.45;21.65;;;;;;;-148.88;100.00;77079.44;5012157;28;20053;-76
2022/12/10 04:38:08;;;;;;;50.70;21.17;;;;;;;-148.88;100.00;77085.53;5012320;28;20018;-76
2022/12/10 04:40:33;;;;;;;50.80;21.70;;;;;;;-148.88;100.00;77085.53;5015633;28;20176;-76
2022/12/10 04:42:59;;;;;;;51.20;20.77;;;;;;;-148.88;100.00;77081.47;5015524;28;20026;-76
2022/12/10 04:45:24;;;;;;;49.45;21.30;;;;;;;-148.88;100.00;77081.47;5015637;28;20408;-75
2022/12/10 04:47:49;;;;;;;45.50;19.35;;;;;;;-148.88;100.00;77077.41;5015960;28;20034;-75
2022/12/10 04:50:15;;;;;;;50.60;21.08;;;;;;;-148.88;100.00;77083.50;5014286;28;20041;-75
2022/12/10 04:52:43;;;;;;;47.60;20.40;;;;;;;-148.88;100.00;77079.44;5015518;28;20047;-75
2022/12/10 04:55:10;;;;;;;56.38;22.30;;;;;;;-148.88;100.00;77081.47;5014509;28;20022;-76
2022/12/10 04:57:36;;;;;;;58.40;22.02;;;;;;;-148.88;100.00;77085.53;5015386;28;20034;-75
2022/12/10 05:00:02;;;;;;;54.17;22.63;;;;;;;-148.88;100.00;77085.53;5015286;28;20072;-76
2022/12/10 05:02:28;;;;;;;48.15;20.90;;;;;;;-148.88;100.00;77083.50;5015260;28;20026;-76
2022/12/10 05:04:53;;;;;;;51.63;21.25;;;;;;;-148.88;100.00;77089.59;5015040;28;20112;-76
2022/12/10 05:07:19;;;;;;;47.63;21.38;;;;;;;-148.88;100.00;77089.59;5015207;28;20104;-76
2022/12/10 05:09:44;;;;;;;51.15;21.75;;;;;;;-148.88;100.00;77093.66;5015104;28;20036;-76
2022/12/10 05:12:10;;;;;;;49.08;20.73;;;;;;;-148.88;100.00;77085.53;5015218;28;20113;-76
2022/12/10 05:14:35;;;;;;;51.55;22.45;;;;;;;-148.88;100.00;77083.50;5015308;28;20034;-75
2022/12/10 05:17:00;;;;;;;56.03;21.10;;;;;;;-148.88;100.00;77085.53;5013757;28;20026;-75
2022/12/10 05:19:26;;;;;;;52.33;22.25;;;;;;;-148.88;100.00;77081.47;5015052;28;20104;-75
2022/12/10 05:24:37;;;;;;;57.45;22.05;;;;;;;-148.88;100.00;77073.34;5015003;28;20032;-75
2022/12/10 05:27:03;;;;;;;49.85;21.70;;;;;;;-148.88;100.00;77069.28;5014965;28;20053;-76
2022/12/10 05:29:29;;;;;;;49.17;22.40;;;;;;;-148.88;100.00;77065.22;5015022;28;20028;-76
2022/12/10 05:31:55;;;;;;;47.15;20.40;;;;;;;-148.88;100.00;77065.22;5015373;28;20434;-76
2022/12/10 05:34:20;;;;;;;48.65;21.05;;;;;;;-148.88;100.00;77065.22;5015037;28;20476;-76
2022/12/10 05:36:46;;;;;;;50.42;19.33;;;;;;;-148.88;100.00;77063.19;5013612;28;20056;-76
2022/12/10 05:39:12;;;;;;;47.75;19.65;;;;;;;-148.88;100.00;77057.09;5014846;28;20088;-76
2022/12/10 05:41:39;;;;;;;47.38;20.15;;;;;;;-148.88;100.00;77061.16;5015033;28;20352;-76
2022/12/10 05:44:07;;;;;;;51.50;20.73;;;;;;;-148.88;100.00;77048.97;5013374;28;20025;-76
2022/12/10 05:46:33;;;;;;;52.47;21.38;;;;;;;-148.88;100.00;77048.97;5014762;28;20105;-76
2022/12/10 05:49:00;;;;;;;51.10;22.25;;;;;;;-148.88;100.00;77048.97;5014617;28;20030;-76
2022/12/10 05:51:33;;;;;;;48.70;19.85;;;;;;;-148.88;100.00;77046.94;5014453;28;20040;-76
2022/12/10 05:54:01;;;;;;;46.33;19.88;;;;;;;-148.88;100.00;77040.84;5013039;28;20038;-76
2022/12/10 05:56:26;;;;;;;44.63;19.27;;;;;;;-148.88;100.00;77044.91;5014838;28;20021;-77
2022/12/10 05:58:56;;;;;;;48.55;20.92;;;;;;;-148.88;100.00;77048.97;5013056;28;20029;-75
2022/12/10 06:01:24;;;;;;;44.58;19.48;;;;;;;-148.88;100.00;77053.03;5014271;28;20032;-76
2022/12/10 06:03:52;;;;;;;46.42;18.27;;;;;;;-148.88;100.00;77044.91;5014168;28;20122;-76
2022/12/10 06:06:25;;;;;;;48.05;20.10;;;;;;;-148.88;100.00;77038.81;5014381;28;20026;-76
2022/12/10 06:08:51;;;;;;;51.65;21.17;;;;;;;-148.88;100.00;77040.84;5012741;28;20503;-76
2022/12/10 06:11:17;;;;;;;45.53;19.27;;;;;;;-148.88;100.00;77044.91;5012765;28;20030;-76
2022/12/10 06:13:43;;;;;;;52.30;21.08;;;;;;;-148.88;100.00;77048.97;5014279;28;20032;-77
2022/12/10 06:16:12;;;;;;;51.10;21.85;;;;;;;-148.88;100.00;77044.91;5013964;28;20029;-76
2022/12/10 06:18:38;;;;;;;57.30;22.33;;;;;;;-148.88;100.00;77048.97;5013853;28;20105;-76
2022/12/10 06:21:05;;;;;;;49.33;20.05;;;;;;;-148.88;100.00;77053.03;5013728;28;20101;-76
2022/12/10 06:23:33;;;;;;;52.25;21.25;;;;;;;-148.88;100.00;77055.06;5013884;28;20021;-76
2022/12/10 06:25:58;;;;;;;43.97;19.80;;;;;;;-148.88;100.00;77051.00;5013772;28;20025;-76
2022/12/10 06:28:23;;;;;;;47.53;20.38;;;;;;;-148.88;100.00;77048.97;5013823;28;20033;-76
2022/12/10 06:30:49;;;;;;;43.67;20.85;;;;;;;-148.88;100.00;77051.00;5013871;28;20441;-76
2022/12/10 06:33:14;;;;;;;48.22;21.88;;;;;;;-148.88;100.00;77038.81;5013924;28;20041;-75
2022/12/10 06:35:39;;;;;;;49.35;21.17;;;;;;;-148.88;100.00;77040.84;5014459;28;20030;-75
2022/12/10 06:38:05;;;;;;;54.70;22.77;;;;;;;-148.88;100.00;77040.84;5013546;28;20057;-75
2022/12/10 06:40:30;;;;;;;51.85;22.13;;;;;;;-148.88;100.00;77040.84;5021171;22;20050;-85
2022/12/10 06:42:55;;;;;;;43.47;20.45;;;;;;;-148.88;100.00;77040.84;5014051;28;20034;-85
2022/12/10 06:45:20;;;;;;;44.72;21.05;;;;;;;-148.88;100.00;77038.81;5013761;28;20453;-86
2022/12/10 06:47:46;;;;;;;45.97;21.83;;;;;;;-148.88;100.00;77036.78;5012638;28;20026;-87
2022/12/10 06:50:11;;;;;;;50.90;23.17;;;;;;;-148.88;100.00;77034.75;5014432;28;20068;-86
2022/12/10 06:52:37;;;;;;;41.30;20.00;;;;;;;-148.88;100.00;77032.72;5012943;28;20453;-86
2022/12/10 06:55:05;;;;;;;42.33;20.77;;;;;;;-148.88;100.00;77020.53;5013592;28;20030;-86
2022/12/10 06:57:32;;;;;;;47.15;20.73;;;;;;;-148.88;100.00;77018.50;5013526;28;20018;-88
2022/12/10 06:59:57;;;;;;;47.47;21.67;;;;;;;-148.88;100.00;77024.59;5013585;28;20022;-87
2022/12/10 07:02:23;;;;;;;49.13;22.13;;;;;;;-148.88;100.00;77032.72;5012886;28;20053;-86
2022/12/10 07:04:48;;;;;;;50.55;20.98;;;;;;;-148.88;100.00;77028.66;5013335;28;20021;-86
2022/12/10 07:07:13;;;;;;;42.83;21.77;;;;;;;-148.88;100.00;77026.63;5013385;28;20028;-86
2022/12/10 07:09:39;;;;;;;40.15;18.08;;;;;;;-148.88;100.00;77040.84;5013197;28;20044;-86
2022/12/10 07:12:04;;;;;;;33.38;15.48;;;;;;;-148.88;100.00;77036.78;5013569;28;20022;-86
2022/12/10 07:14:29;;;;;;;24.52;12.00;;;;;;;-148.88;100.00;77053.03;5013277;28;20022;-86
2022/12/10 07:16:55;;;;;;;28.40;12.82;;;;;;;-148.88;100.00;77051.00;5013378;28;20022;-86
2022/12/10 07:19:20;;;;;;;25.85;12.07;;;;;;;-148.88;100.00;77053.03;5013089;28;20027;-86
2022/12/10 07:21:45;;;;;;;26.70;12.55;;;;;;;-148.88;100.00;77048.97;5013325;28;20025;-86
2022/12/10 07:24:14;;;;;;;25.95;11.95;;;;;;;-148.88;100.00;77042.88;5013599;28;20018;-86
2022/12/10 07:26:40;;;;;;;29.23;13.90;;;;;;;-148.88;100.00;77040.84;5014511;28;20029;-85
2022/12/10 07:29:09;;;;;;;38.20;16.98;;;;;;;-148.88;100.00;77042.88;5014734;28;20457;-85
2022/12/10 07:31:35;;;;;;;37.00;16.63;;;;;;;-148.88;100.00;77046.94;5012177;28;20030;-85
2022/12/10 07:34:01;;;;;;;35.63;16.60;;;;;;;-148.88;100.00;77044.91;5013141;28;20029;-86
2022/12/10 07:36:27;;;;;;;35.08;17.52;;;;;;;-148.88;100.00;77040.84;5013612;28;20396;-83
2022/12/10 07:38:54;;;;;;;32.63;16.05;;;;;;;-148.88;100.00;77036.78;5013476;28;20042;-85
2022/12/10 07:41:22;;;;;;;38.22;16.83;;;;;;;-148.88;100.00;77044.91;5013479;28;20088;-85
2022/12/10 07:43:49;;;;;;;32.38;16.30;;;;;;;-148.88;100.00;77036.78;5011881;28;20034;-85
2022/12/10 07:46:21;;;;;;;32.15;15.85;;;;;;;-148.88;100.00;77040.84;5013773;28;20104;-84
2022/12/10 07:48:48;;;;;;;37.95;15.18;;;;;;;-148.88;100.00;77032.72;5013546;28;20033;-85
2022/12/10 07:51:14;;;;;;;35.05;17.38;;;;;;;-148.88;100.00;77036.78;5013579;28;20022;-84
2022/12/10 07:53:40;;;;;;;41.80;19.10;;;;;;;-148.88;100.00;77044.91;5013861;28;20029;-86
2022/12/10 07:56:06;;;;;;;33.88;16.77;;;;;;;-148.88;100.00;77044.91;5015048;28;20033;-86
2022/12/10 07:58:32;;;;;;;38.60;17.60;;;;;;;-148.88;100.00;77040.84;5012742;28;20025;-88
2022/12/10 08:00:57;;;;;;;37.55;16.45;;;;;;;-148.88;100.00;77028.66;5013087;28;20017;-88
2022/12/10 08:03:23;;;;;;;34.10;16.17;;;;;;;-148.88;100.00;77032.72;5013234;28;20092;-85
2022/12/10 08:05:59;;;;;;;30.95;15.95;;;;;;;-148.88;100.00;77040.84;5012938;28;20030;-85
2022/12/10 08:08:25;;;;;;;34.28;15.85;;;;;;;-148.88;100.00;77040.84;5014369;28;20049;-86
2022/12/10 08:10:50;;;;;;;35.85;16.75;;;;;;;-148.88;100.00;77044.91;5012798;28;20477;-86
2022/12/10 08:13:15;;;;;;;36.88;16.48;;;;;;;-148.88;100.00;77036.78;5011795;28;20388;-83
2022/12/10 08:15:41;;;;;;;35.53;17.35;;;;;;;-148.88;100.00;77048.97;5015786;28;20022;-83
2022/12/10 08:18:06;;;;;;;39.67;17.50;;;;;;;-148.88;100.00;77057.09;5015679;28;20026;-85
2022/12/10 08:20:31;;;;;;;38.65;16.38;;;;;;;-148.88;100.00;77044.91;5016596;28;20034;-88
2022/12/10 08:22:57;;;;;;;34.90;16.20;;;;;;;-148.88;100.00;77044.91;5015944;28;20556;-84
2022/12/10 08:25:22;;;;;;;35.47;17.58;;;;;;;-148.88;100.00;77042.88;5016640;28;20431;-83
2022/12/10 08:27:47;;;;;;;33.65;15.95;;;;;;;-148.88;100.00;77042.88;5015144;28;20026;-83
2022/12/10 08:30:13;;;;;;;35.97;16.90;;;;;;;-148.88;100.00;77040.84;5016488;28;20026;-83
2022/12/10 08:32:38;;;;;;;39.20;19.35;;;;;;;-148.88;100.00;77044.91;5016592;28;20083;-83
2022/12/10 08:35:04;;;;;;;39.30;17.77;;;;;;;-148.88;100.00;77032.72;5015160;28;20053;-84
2022/12/10 08:37:29;;;;;;;39.30;19.10;;;;;;;-148.88;100.00;77038.81;5016737;28;20112;-85
2022/12/10 08:39:55;;;;;;;36.38;16.85;;;;;;;-148.88;100.00;77036.78;5015576;28;20036;-84
2022/12/10 08:42:20;;;;;;;42.75;18.17;;;;;;;-148.88;100.00;77032.72;5016602;28;20029;-82
2022/12/10 08:44:45;;;;;;;41.25;18.70;;;;;;;-148.88;100.00;77032.72;5016064;28;20503;-85
2022/12/10 08:47:10;;;;;;;35.28;18.15;;;;;;;-148.88;100.00;77028.66;5016226;28;20167;-84
2022/12/10 08:49:36;;;;;;;39.47;19.10;;;;;;;-148.88;100.00;77036.78;5016057;28;20163;-85
2022/12/10 08:52:01;;;;;;;40.03;18.15;;;;;;;-148.88;100.00;77036.78;5016155;28;20101;-84
2022/12/10 08:54:27;;;;;;;38.58;17.92;;;;;;;-148.88;100.00;77048.97;5016229;28;20105;-86
2022/12/10 08:56:52;;;;;;;36.75;17.38;;;;;;;-148.88;100.00;77032.72;5015117;28;20490;-85
2022/12/10 08:59:18;;;;;;;30.58;15.95;;;;;;;-148.88;100.00;77024.59;5014742;28;21957;-88
2022/12/10 09:01:43;;;;;;;40.70;17.85;;;;;;;-148.88;100.00;77028.66;5015265;28;20041;-88
2022/12/10 09:04:09;;;;;;;40.05;19.30;;;;;;;-148.88;100.00;77034.75;5014964;28;20400;-87
2022/12/10 09:06:35;;;;;;;41.10;18.60;;;;;;;-148.88;100.00;77044.91;5017878;28;20030;-86
2022/12/10 09:09:00;;;;;;;39.67;17.77;;;;;;;-148.88;100.00;77044.91;5016307;28;20037;-88
2022/12/10 09:11:31;;;;;;;39.00;18.95;;;;;;;-148.88;100.00;77057.09;5015996;28;20421;-85
2022/12/10 09:13:57;;;;;;;45.80;21.02;;;;;;;-148.88;100.00;77065.22;5017842;28;20026;-85
2022/12/10 09:16:31;;;;;;;44.20;20.92;;;;;;;-148.88;100.00;77069.28;5014887;28;20080;-85
2022/12/10 09:18:57;;;;;;;46.67;20.02;;;;;;;-148.88;100.00;77057.09;5016249;28;20018;-85
2022/12/10 09:21:22;;;;;;;42.60;19.33;;;;;;;-148.88;100.00;77061.16;5016292;28;20026;-84
2022/12/10 09:23:50;;;;;;;41.30;19.35;;;;;;;-148.88;100.00;77048.97;5015552;28;20034;-84
2022/12/10 09:26:16;;;;;;;39.65;19.40;;;;;;;-148.88;100.00;77069.28;5015508;28;20137;-84
2022/12/10 09:28:43;;;;;;;44.25;20.02;;;;;;;-148.88;100.00;77073.34;5015605;28;20495;-85
2022/12/10 09:31:10;;;;;;;39.35;19.30;;;;;;;-148.88;100.00;77081.47;5016634;28;20025;-84
2022/12/10 09:33:36;;;;;;;41.50;20.35;;;;;;;-148.88;100.00;77067.25;5015705;28;20376;-83
2022/12/10 09:36:06;;;;;;;43.03;20.85;;;;;;;-148.88;100.00;77053.03;5015882;28;20049;-82
2022/12/10 09:38:34;;;;;;;45.47;19.80;;;;;;;-148.88;100.00;77061.16;5015426;28;20087;-85
2022/12/10 09:41:02;;;;;;;46.25;21.05;;;;;;;-148.88;100.00;77063.19;5015058;28;20030;-84
2022/12/10 09:44:03;;;;;;;45.33;21.90;;;;;;;-148.88;100.00;77061.16;5015790;28;20377;-85
2022/12/10 09:46:43;;;;;;;43.63;21.63;;;;;;;-148.88;100.00;77055.06;5015699;28;20037;-84
2022/12/10 09:49:21;;;;;;;42.30;19.83;;;;;;;-148.88;100.00;77044.91;5015321;28;20105;-85
2022/12/10 09:51:47;;;;;;;48.08;21.00;;;;;;;-148.88;100.00;77028.66;5015676;28;20025;-86
2022/12/10 09:54:24;;;;;;;43.72;20.63;;;;;;;-148.88;100.00;77020.53;5015146;28;20442;-84
2022/12/10 09:56:51;;;;;;;44.53;21.13;;;;;;;-148.88;100.00;77020.53;5016804;28;20044;-86
2022/12/10 09:59:24;;;;;;;48.58;22.85;;;;;;;-148.88;100.00;77046.94;5015390;28;20025;-84
2022/12/10 10:02:02;;;;;;;51.60;23.58;;;;;;;-148.88;100.00;77044.91;5015990;28;20022;-85
2022/12/10 10:04:28;;;;;;;51.33;22.73;;;;;;;-148.88;100.00;77036.78;5016097;28;20030;-84
2022/12/10 10:06:53;;;;;;;51.25;23.65;;;;;;;-148.88;100.00;77040.84;5015347;28;20554;-85
2022/12/10 10:09:19;;;;;;;50.30;23.70;;;;;;;-148.88;100.00;77048.97;5014675;28;20026;-84
2022/12/10 10:11:45;;;;;;;49.35;23.60;;;;;;;-148.88;100.00;77048.97;5013851;28;20112;-85
2022/12/10 10:14:13;;;;;;;47.83;21.85;;;;;;;-148.88;100.00;77053.03;5014757;28;20028;-84
2022/12/10 10:16:52;;;;;;;52.47;23.15;;;;;;;-148.88;100.00;77048.97;5014541;28;20076;-85
2022/12/10 10:19:24;;;;;;;52.63;24.85;;;;;;;-148.88;100.00;77051.00;5013154;28;20104;-86
2022/12/10 10:21:51;;;;;;;53.90;23.03;;;;;;;-148.88;100.00;77040.84;5014957;28;20029;-86
2022/12/10 10:24:28;;;;;;;54.08;24.35;;;;;;;-148.88;100.00;77053.03;5014691;28;20255;-86
2022/12/10 10:26:57;;;;;;;53.67;23.00;;;;;;;-148.88;100.00;77046.94;5014222;28;20029;-88
2022/12/10 10:29:26;;;;;;;56.95;24.33;;;;;;;-148.88;100.00;77061.16;5014235;28;20329;-87
2022/12/10 10:32:12;;;;;;;61.13;25.52;;;;;;;-148.88;100.00;77063.19;5012745;28;20552;-85
2022/12/10 10:34:39;;;;;;;54.53;24.33;;;;;;;-148.88;100.00;77057.09;5014373;28;20026;-85
2022/12/10 10:37:05;;;;;;;59.50;24.88;;;;;;;-148.88;100.00;77067.25;5013329;28;20029;-86
2022/12/10 10:39:32;;;;;;;57.33;25.58;;;;;;;-148.88;100.00;77065.22;5012847;28;20030;-87
2022/12/10 10:41:59;;;;;;;52.72;24.35;;;;;;;-148.88;100.00;77069.28;5013964;28;20041;-87
2022/12/10 10:44:28;;;;;;;54.97;24.90;;;;;;;-148.88;100.00;77057.09;5013730;28;20112;-87
2022/12/10 10:46:55;;;;;;;53.08;25.73;;;;;;;-148.88;100.00;77044.91;5013748;28;20033;-86
2022/12/10 10:49:25;;;;;;;53.83;23.30;;;;;;;-148.88;100.00;77040.84;5012546;28;20056;-84
2022/12/10 10:51:53;;;;;;;47.50;22.13;;;;;;;-148.88;100.00;77042.88;5014137;28;20029;-85
2022/12/10 10:54:38;;;;;;;50.35;23.65;;;;;;;-148.88;100.00;77042.88;5013870;28;20030;-86
2022/12/10 10:57:11;;;;;;;57.55;25.30;;;;;;;-148.88;100.00;77038.81;5012915;28;20084;-86
2022/12/10 10:59:37;;;;;;;58.90;27.10;;;;;;;-148.88;100.00;77024.59;5012498;28;20018;-85
2022/12/10 11:02:24;;;;;;;48.63;22.88;;;;;;;-148.88;100.00;77044.91;5015595;28;20030;-87
2022/12/10 11:04:54;;;;;;;42.45;19.52;;;;;;;-148.88;100.00;77044.91;5014537;28;20022;-85
2022/12/10 11:07:36;;;;;;;50.40;21.85;;;;;;;-148.88;100.00;77026.63;5012696;28;20036;-90
2022/12/10 11:10:15;;;;;;;47.53;20.90;;;;;;;-148.88;100.00;77024.59;5014119;28;20025;-90
2022/12/10 11:12:40;;;;;;;40.92;19.35;;;;;;;-148.88;100.00;77012.41;5013311;28;20032;-87
2022/12/10 11:15:29;;;;;;;44.05;21.92;;;;;;;-148.88;100.00;77004.25;5014424;28;20105;-87